sensor_id;sensor_type;location;lat;lon;timestamp;temperature;humidity
49765;DHT22;35657;51.204;-4.130;2023-07-31T00:01:25;17.70;99.90
49765;DHT22;35657;51.204;-4.130;2023-07-31T00:03:50;17.70;99.90
49765;DHT22;35657;51.204;-4.130;2023-07-31T00:06:16;17.70;99.90
49765;DHT22;35657;51.204;-4.130;2023-07-31T00:08:42;17.70;99.90
49765;DHT22;35657;51.204;-4.130;2023-07-31T00:11:08;17.70;99.90
49765;DHT22;35657;51.204;-4.130;2023-07-31T00:13:33;17.70;99.90
49765;DHT22;35657;51.204;-4.130;2023-07-31T00:15:59;17.70;99.90
49765;DHT22;35657;51.204;-4.130;2023-07-31T00:18:25;17.70;99.90
49765;DHT22;35657;51.204;-4.130;2023-07-31T00:20:50;17.70;99.90
49765;DHT22;35657;51.204;-4.130;2023-07-31T00:23:16;17.70;99.90
49765;DHT22;35657;51.204;-4.130;2023-07-31T00:25:42;17.70;99.90
49765;DHT22;35657;51.204;-4.130;2023-07-31T00:28:08;17.70;99.90
49765;DHT22;35657;51.204;-4.130;2023-07-31T00:30:34;17.70;99.90
49765;DHT22;35657;51.204;-4.130;2023-07-31T00:33:00;17.70;99.90
49765;DHT22;35657;51.204;-4.130;2023-07-31T00:35:26;17.70;99.90
49765;DHT22;35657;51.204;-4.130;2023-07-31T00:37:51;17.70;99.90
49765;DHT22;35657;51.204;-4.130;2023-07-31T00:40:17;17.70;99.90
49765;DHT22;35657;51.204;-4.130;2023-07-31T00:42:43;17.70;99.90
49765;DHT22;35657;51.204;-4.130;2023-07-31T00:45:09;17.70;99.90
49765;DHT22;35657;51.204;-4.130;2023-07-31T00:47:35;17.70;99.90
49765;DHT22;35657;51.204;-4.130;2023-07-31T00:50:01;17.70;99.90
49765;DHT22;35657;51.204;-4.130;2023-07-31T00:52:26;17.70;99.90
49765;DHT22;35657;51.204;-4.130;2023-07-31T00:54:52;17.60;99.90
49765;DHT22;35657;51.204;-4.130;2023-07-31T00:57:19;17.60;99.90
49765;DHT22;35657;51.204;-4.130;2023-07-31T00:59:45;17.60;99.90
49765;DHT22;35657;51.204;-4.130;2023-07-31T01:02:12;17.60;99.90
49765;DHT22;35657;51.204;-4.130;2023-07-31T01:04:38;17.50;99.90
49765;DHT22;35657;51.204;-4.130;2023-07-31T01:10:11;17.50;99.90
49765;DHT22;35657;51.204;-4.130;2023-07-31T01:12:42;17.50;99.90
49765;DHT22;35657;51.204;-4.130;2023-07-31T01:15:10;17.50;99.90
49765;DHT22;35657;51.204;-4.130;2023-07-31T01:17:39;17.50;99.90
49765;DHT22;35657;51.204;-4.130;2023-07-31T01:20:11;17.60;99.90
49765;DHT22;35657;51.204;-4.130;2023-07-31T01:23:14;17.60;99.90
49765;DHT22;35657;51.204;-4.130;2023-07-31T01:26:03;17.60;99.90
49765;DHT22;35657;51.204;-4.130;2023-07-31T01:31:23;17.60;99.90
49765;DHT22;35657;51.204;-4.130;2023-07-31T01:33:50;17.60;99.90
49765;DHT22;35657;51.204;-4.130;2023-07-31T01:36:18;17.60;99.90
49765;DHT22;35657;51.204;-4.130;2023-07-31T01:38:44;17.50;99.90
49765;DHT22;35657;51.204;-4.130;2023-07-31T01:41:10;17.50;99.90
49765;DHT22;35657;51.204;-4.130;2023-07-31T01:43:35;17.50;99.90
49765;DHT22;35657;51.204;-4.130;2023-07-31T01:46:01;17.50;99.90
49765;DHT22;35657;51.204;-4.130;2023-07-31T01:48:27;17.50;99.90
49765;DHT22;35657;51.204;-4.130;2023-07-31T01:50:52;17.40;99.90
49765;DHT22;35657;51.204;-4.130;2023-07-31T01:53:18;17.40;99.90
49765;DHT22;35657;51.204;-4.130;2023-07-31T01:55:44;17.40;99.90
49765;DHT22;35657;51.204;-4.130;2023-07-31T01:58:09;17.40;99.90
49765;DHT22;35657;51.204;-4.130;2023-07-31T02:00:35;17.40;99.90
49765;DHT22;35657;51.204;-4.130;2023-07-31T02:03:01;17.40;99.90
49765;DHT22;35657;51.204;-4.130;2023-07-31T02:05:27;17.50;99.90
49765;DHT22;35657;51.204;-4.130;2023-07-31T02:07:52;17.50;99.90
49765;DHT22;35657;51.204;-4.130;2023-07-31T02:10:18;17.60;99.90
49765;DHT22;35657;51.204;-4.130;2023-07-31T02:12:44;17.50;99.90
49765;DHT22;35657;51.204;-4.130;2023-07-31T02:15:10;17.60;99.90
49765;DHT22;35657;51.204;-4.130;2023-07-31T02:17:35;17.50;99.90
49765;DHT22;35657;51.204;-4.130;2023-07-31T02:20:01;17.40;99.90
49765;DHT22;35657;51.204;-4.130;2023-07-31T02:22:27;17.40;99.90
49765;DHT22;35657;51.204;-4.130;2023-07-31T02:24:52;17.40;99.90
49765;DHT22;35657;51.204;-4.130;2023-07-31T02:27:18;17.40;99.90
49765;DHT22;35657;51.204;-4.130;2023-07-31T02:29:44;17.40;99.90
49765;DHT22;35657;51.204;-4.130;2023-07-31T02:32:10;17.30;99.90
49765;DHT22;35657;51.204;-4.130;2023-07-31T02:34:35;17.30;99.90
49765;DHT22;35657;51.204;-4.130;2023-07-31T02:37:01;17.30;99.90
49765;DHT22;35657;51.204;-4.130;2023-07-31T02:39:27;17.30;99.90
49765;DHT22;35657;51.204;-4.130;2023-07-31T02:41:53;17.30;99.90
49765;DHT22;35657;51.204;-4.130;2023-07-31T02:44:18;17.30;99.90
49765;DHT22;35657;51.204;-4.130;2023-07-31T02:46:45;17.30;99.90
49765;DHT22;35657;51.204;-4.130;2023-07-31T02:49:11;17.30;99.90
49765;DHT22;35657;51.204;-4.130;2023-07-31T02:51:37;17.30;99.90
49765;DHT22;35657;51.204;-4.130;2023-07-31T02:54:03;17.40;99.90
49765;DHT22;35657;51.204;-4.130;2023-07-31T02:56:28;17.40;99.90
49765;DHT22;35657;51.204;-4.130;2023-07-31T02:58:54;17.50;99.90
49765;DHT22;35657;51.204;-4.130;2023-07-31T03:01:20;17.50;99.90
49765;DHT22;35657;51.204;-4.130;2023-07-31T03:03:45;17.40;99.90
49765;DHT22;35657;51.204;-4.130;2023-07-31T03:06:11;17.40;99.90
49765;DHT22;35657;51.204;-4.130;2023-07-31T03:08:37;17.30;99.90
49765;DHT22;35657;51.204;-4.130;2023-07-31T03:11:03;17.30;99.90
49765;DHT22;35657;51.204;-4.130;2023-07-31T03:13:28;17.30;99.90
49765;DHT22;35657;51.204;-4.130;2023-07-31T03:15:54;17.30;99.90
49765;DHT22;35657;51.204;-4.130;2023-07-31T03:18:20;17.20;99.90
49765;DHT22;35657;51.204;-4.130;2023-07-31T03:20:45;17.30;99.90
49765;DHT22;35657;51.204;-4.130;2023-07-31T03:23:11;17.20;99.90
49765;DHT22;35657;51.204;-4.130;2023-07-31T03:25:37;17.20;99.90
49765;DHT22;35657;51.204;-4.130;2023-07-31T03:28:03;17.20;99.90
49765;DHT22;35657;51.204;-4.130;2023-07-31T03:30:28;17.20;99.90
49765;DHT22;35657;51.204;-4.130;2023-07-31T03:32:54;17.20;99.90
49765;DHT22;35657;51.204;-4.130;2023-07-31T03:35:20;17.20;99.90
49765;DHT22;35657;51.204;-4.130;2023-07-31T03:37:46;17.30;99.90
49765;DHT22;35657;51.204;-4.130;2023-07-31T03:40:12;17.30;99.90
49765;DHT22;35657;51.204;-4.130;2023-07-31T03:42:38;17.30;99.90
49765;DHT22;35657;51.204;-4.130;2023-07-31T03:45:04;17.30;99.90
49765;DHT22;35657;51.204;-4.130;2023-07-31T03:47:30;17.40;99.90
49765;DHT22;35657;51.204;-4.130;2023-07-31T03:49:56;17.40;99.90
49765;DHT22;35657;51.204;-4.130;2023-07-31T03:52:21;17.30;99.90
49765;DHT22;35657;51.204;-4.130;2023-07-31T03:54:47;17.30;99.90
49765;DHT22;35657;51.204;-4.130;2023-07-31T03:57:13;17.20;99.90
49765;DHT22;35657;51.204;-4.130;2023-07-31T03:59:38;17.20;99.90
49765;DHT22;35657;51.204;-4.130;2023-07-31T04:02:04;17.20;99.90
49765;DHT22;35657;51.204;-4.130;2023-07-31T04:04:30;17.20;99.90
49765;DHT22;35657;51.204;-4.130;2023-07-31T04:06:56;17.20;99.90
49765;DHT22;35657;51.204;-4.130;2023-07-31T04:09:22;17.10;99.90
49765;DHT22;35657;51.204;-4.130;2023-07-31T04:11:48;17.20;99.90
49765;DHT22;35657;51.204;-4.130;2023-07-31T04:14:13;17.20;99.90
49765;DHT22;35657;51.204;-4.130;2023-07-31T04:16:39;17.20;99.90
49765;DHT22;35657;51.204;-4.130;2023-07-31T04:19:05;17.10;99.90
49765;DHT22;35657;51.204;-4.130;2023-07-31T04:21:30;17.10;99.90
49765;DHT22;35657;51.204;-4.130;2023-07-31T04:23:56;17.10;99.90
49765;DHT22;35657;51.204;-4.130;2023-07-31T04:26:23;17.20;99.90
49765;DHT22;35657;51.204;-4.130;2023-07-31T04:28:49;17.20;99.90
49765;DHT22;35657;51.204;-4.130;2023-07-31T04:31:15;17.30;99.90
49765;DHT22;35657;51.204;-4.130;2023-07-31T04:33:40;17.30;99.90
49765;DHT22;35657;51.204;-4.130;2023-07-31T04:36:06;17.30;99.90
49765;DHT22;35657;51.204;-4.130;2023-07-31T04:38:32;17.20;99.90
49765;DHT22;35657;51.204;-4.130;2023-07-31T04:40:58;17.20;99.90
49765;DHT22;35657;51.204;-4.130;2023-07-31T04:43:23;17.10;99.90
49765;DHT22;35657;51.204;-4.130;2023-07-31T04:45:49;17.10;99.90
49765;DHT22;35657;51.204;-4.130;2023-07-31T04:48:15;17.00;99.90
49765;DHT22;35657;51.204;-4.130;2023-07-31T04:50:41;17.10;99.90
49765;DHT22;35657;51.204;-4.130;2023-07-31T04:53:07;17.00;99.90
49765;DHT22;35657;51.204;-4.130;2023-07-31T04:55:34;17.10;99.90
49765;DHT22;35657;51.204;-4.130;2023-07-31T04:57:59;17.10;99.90
49765;DHT22;35657;51.204;-4.130;2023-07-31T05:00:25;17.10;99.90
49765;DHT22;35657;51.204;-4.130;2023-07-31T05:02:51;17.00;99.90
49765;DHT22;35657;51.204;-4.130;2023-07-31T05:05:17;17.00;99.90
49765;DHT22;35657;51.204;-4.130;2023-07-31T05:07:42;17.10;99.90
49765;DHT22;35657;51.204;-4.130;2023-07-31T05:10:09;17.00;99.90
49765;DHT22;35657;51.204;-4.130;2023-07-31T05:12:34;17.10;99.90
49765;DHT22;35657;51.204;-4.130;2023-07-31T05:15:00;17.00;99.90
49765;DHT22;35657;51.204;-4.130;2023-07-31T05:17:26;17.10;99.90
49765;DHT22;35657;51.204;-4.130;2023-07-31T05:19:51;17.10;99.90
49765;DHT22;35657;51.204;-4.130;2023-07-31T05:22:17;17.10;99.90
49765;DHT22;35657;51.204;-4.130;2023-07-31T05:24:43;17.10;99.90
49765;DHT22;35657;51.204;-4.130;2023-07-31T05:27:08;17.10;99.90
49765;DHT22;35657;51.204;-4.130;2023-07-31T05:29:35;17.00;99.90
49765;DHT22;35657;51.204;-4.130;2023-07-31T05:32:01;17.00;99.90
49765;DHT22;35657;51.204;-4.130;2023-07-31T05:34:26;17.00;99.90
49765;DHT22;35657;51.204;-4.130;2023-07-31T05:36:53;17.00;99.90
49765;DHT22;35657;51.204;-4.130;2023-07-31T05:39:19;17.00;99.90
49765;DHT22;35657;51.204;-4.130;2023-07-31T05:41:45;17.00;99.90
49765;DHT22;35657;51.204;-4.130;2023-07-31T05:44:11;17.00;99.90
49765;DHT22;35657;51.204;-4.130;2023-07-31T05:46:37;17.00;99.90
49765;DHT22;35657;51.204;-4.130;2023-07-31T05:49:04;17.00;99.90
49765;DHT22;35657;51.204;-4.130;2023-07-31T05:51:30;17.00;99.90
49765;DHT22;35657;51.204;-4.130;2023-07-31T05:53:55;17.00;99.90
49765;DHT22;35657;51.204;-4.130;2023-07-31T05:56:21;17.10;99.90
49765;DHT22;35657;51.204;-4.130;2023-07-31T05:58:47;17.00;99.90
49765;DHT22;35657;51.204;-4.130;2023-07-31T06:01:15;17.10;99.90
49765;DHT22;35657;51.204;-4.130;2023-07-31T06:03:41;17.10;99.90
49765;DHT22;35657;51.204;-4.130;2023-07-31T06:06:07;17.00;99.90
49765;DHT22;35657;51.204;-4.130;2023-07-31T06:08:32;17.10;99.90
49765;DHT22;35657;51.204;-4.130;2023-07-31T06:10:58;17.10;99.90
49765;DHT22;35657;51.204;-4.130;2023-07-31T06:13:24;17.10;99.90
49765;DHT22;35657;51.204;-4.130;2023-07-31T06:15:49;17.10;99.90
49765;DHT22;35657;51.204;-4.130;2023-07-31T06:18:16;17.10;99.90
49765;DHT22;35657;51.204;-4.130;2023-07-31T06:20:41;17.10;99.90
49765;DHT22;35657;51.204;-4.130;2023-07-31T06:23:07;17.10;99.90
49765;DHT22;35657;51.204;-4.130;2023-07-31T06:25:33;17.10;99.90
49765;DHT22;35657;51.204;-4.130;2023-07-31T06:27:59;17.10;99.90
49765;DHT22;35657;51.204;-4.130;2023-07-31T06:30:24;17.10;99.90
49765;DHT22;35657;51.204;-4.130;2023-07-31T06:32:50;17.10;99.90
49765;DHT22;35657;51.204;-4.130;2023-07-31T06:35:16;17.10;99.90
49765;DHT22;35657;51.204;-4.130;2023-07-31T06:37:42;17.00;99.90
49765;DHT22;35657;51.204;-4.130;2023-07-31T06:40:10;17.10;99.90
49765;DHT22;35657;51.204;-4.130;2023-07-31T06:42:36;17.10;99.90
49765;DHT22;35657;51.204;-4.130;2023-07-31T06:45:02;17.10;99.90
49765;DHT22;35657;51.204;-4.130;2023-07-31T06:47:28;17.10;99.90
49765;DHT22;35657;51.204;-4.130;2023-07-31T06:49:53;17.20;99.90
49765;DHT22;35657;51.204;-4.130;2023-07-31T06:52:19;17.20;99.90
49765;DHT22;35657;51.204;-4.130;2023-07-31T06:55:01;17.10;99.90
49765;DHT22;35657;51.204;-4.130;2023-07-31T06:57:28;17.20;99.90
49765;DHT22;35657;51.204;-4.130;2023-07-31T06:59:53;17.20;99.90
49765;DHT22;35657;51.204;-4.130;2023-07-31T07:02:19;17.20;99.90
49765;DHT22;35657;51.204;-4.130;2023-07-31T07:04:45;17.20;99.90
49765;DHT22;35657;51.204;-4.130;2023-07-31T07:07:11;17.20;99.90
49765;DHT22;35657;51.204;-4.130;2023-07-31T07:09:37;17.20;99.90
49765;DHT22;35657;51.204;-4.130;2023-07-31T07:12:03;17.10;99.90
49765;DHT22;35657;51.204;-4.130;2023-07-31T07:14:29;17.20;99.90
49765;DHT22;35657;51.204;-4.130;2023-07-31T07:16:54;17.20;99.90
49765;DHT22;35657;51.204;-4.130;2023-07-31T07:19:20;17.10;99.90
49765;DHT22;35657;51.204;-4.130;2023-07-31T07:21:46;17.20;99.90
49765;DHT22;35657;51.204;-4.130;2023-07-31T07:24:12;17.10;99.90
49765;DHT22;35657;51.204;-4.130;2023-07-31T07:26:37;17.10;99.90
49765;DHT22;35657;51.204;-4.130;2023-07-31T07:29:03;17.20;99.90
49765;DHT22;35657;51.204;-4.130;2023-07-31T07:31:29;17.20;99.90
49765;DHT22;35657;51.204;-4.130;2023-07-31T07:33:54;17.30;99.90
49765;DHT22;35657;51.204;-4.130;2023-07-31T07:36:21;17.30;99.90
49765;DHT22;35657;51.204;-4.130;2023-07-31T07:38:46;17.30;99.90
49765;DHT22;35657;51.204;-4.130;2023-07-31T07:41:12;17.20;99.90
49765;DHT22;35657;51.204;-4.130;2023-07-31T07:43:38;17.10;99.90
49765;DHT22;35657;51.204;-4.130;2023-07-31T07:46:03;17.10;99.90
49765;DHT22;35657;51.204;-4.130;2023-07-31T07:48:29;17.10;99.90
49765;DHT22;35657;51.204;-4.130;2023-07-31T07:50:55;17.20;99.90
49765;DHT22;35657;51.204;-4.130;2023-07-31T07:53:20;17.20;99.90
49765;DHT22;35657;51.204;-4.130;2023-07-31T07:55:46;17.10;99.90
49765;DHT22;35657;51.204;-4.130;2023-07-31T07:58:12;17.20;99.90
49765;DHT22;35657;51.204;-4.130;2023-07-31T08:00:37;17.20;99.90
49765;DHT22;35657;51.204;-4.130;2023-07-31T08:03:03;17.20;99.90
49765;DHT22;35657;51.204;-4.130;2023-07-31T08:05:29;17.20;99.90
49765;DHT22;35657;51.204;-4.130;2023-07-31T08:07:55;17.20;99.90
49765;DHT22;35657;51.204;-4.130;2023-07-31T08:10:21;17.20;99.90
49765;DHT22;35657;51.204;-4.130;2023-07-31T08:12:47;17.30;99.90
49765;DHT22;35657;51.204;-4.130;2023-07-31T08:15:12;17.40;99.90
49765;DHT22;35657;51.204;-4.130;2023-07-31T08:17:38;17.50;99.90
49765;DHT22;35657;51.204;-4.130;2023-07-31T08:20:05;17.50;99.90
49765;DHT22;35657;51.204;-4.130;2023-07-31T08:22:31;17.60;99.90
49765;DHT22;35657;51.204;-4.130;2023-07-31T08:24:57;17.70;99.90
49765;DHT22;35657;51.204;-4.130;2023-07-31T08:27:23;17.70;99.90
49765;DHT22;35657;51.204;-4.130;2023-07-31T08:29:48;17.70;99.90
49765;DHT22;35657;51.204;-4.130;2023-07-31T08:32:14;17.70;99.90
49765;DHT22;35657;51.204;-4.130;2023-07-31T08:34:40;17.60;99.90
49765;DHT22;35657;51.204;-4.130;2023-07-31T08:37:07;17.60;99.90
49765;DHT22;35657;51.204;-4.130;2023-07-31T08:39:33;17.60;99.90
49765;DHT22;35657;51.204;-4.130;2023-07-31T08:41:59;17.60;99.90
49765;DHT22;35657;51.204;-4.130;2023-07-31T08:44:25;17.70;99.90
49765;DHT22;35657;51.204;-4.130;2023-07-31T08:46:52;17.70;99.90
49765;DHT22;35657;51.204;-4.130;2023-07-31T08:49:20;17.70;99.90
49765;DHT22;35657;51.204;-4.130;2023-07-31T08:51:49;17.70;99.90
49765;DHT22;35657;51.204;-4.130;2023-07-31T08:54:15;17.70;99.90
49765;DHT22;35657;51.204;-4.130;2023-07-31T08:56:42;17.80;99.90
49765;DHT22;35657;51.204;-4.130;2023-07-31T08:59:08;17.80;99.90
49765;DHT22;35657;51.204;-4.130;2023-07-31T09:01:39;17.80;99.90
49765;DHT22;35657;51.204;-4.130;2023-07-31T09:04:08;17.90;99.90
49765;DHT22;35657;51.204;-4.130;2023-07-31T09:06:35;18.00;99.90
49765;DHT22;35657;51.204;-4.130;2023-07-31T09:09:01;18.00;99.90
49765;DHT22;35657;51.204;-4.130;2023-07-31T09:11:27;18.10;99.90
49765;DHT22;35657;51.204;-4.130;2023-07-31T09:13:56;18.20;99.90
49765;DHT22;35657;51.204;-4.130;2023-07-31T09:16:29;18.20;99.90
49765;DHT22;35657;51.204;-4.130;2023-07-31T09:18:57;18.10;99.90
49765;DHT22;35657;51.204;-4.130;2023-07-31T09:21:24;18.00;99.90
49765;DHT22;35657;51.204;-4.130;2023-07-31T09:23:51;18.00;99.90
49765;DHT22;35657;51.204;-4.130;2023-07-31T09:26:39;18.00;99.90
49765;DHT22;35657;51.204;-4.130;2023-07-31T09:29:07;18.00;99.90
49765;DHT22;35657;51.204;-4.130;2023-07-31T09:31:43;18.00;99.90
49765;DHT22;35657;51.204;-4.130;2023-07-31T09:34:10;18.00;99.90
49765;DHT22;35657;51.204;-4.130;2023-07-31T09:36:46;17.90;99.90
49765;DHT22;35657;51.204;-4.130;2023-07-31T09:39:13;18.00;99.90
49765;DHT22;35657;51.204;-4.130;2023-07-31T09:41:42;17.90;99.90
49765;DHT22;35657;51.204;-4.130;2023-07-31T09:44:09;17.90;99.90
49765;DHT22;35657;51.204;-4.130;2023-07-31T09:46:36;17.90;99.90
49765;DHT22;35657;51.204;-4.130;2023-07-31T09:49:12;17.80;99.90
49765;DHT22;35657;51.204;-4.130;2023-07-31T09:51:39;17.80;99.90
49765;DHT22;35657;51.204;-4.130;2023-07-31T09:54:16;17.70;99.90
49765;DHT22;35657;51.204;-4.130;2023-07-31T09:56:46;17.80;99.90
49765;DHT22;35657;51.204;-4.130;2023-07-31T09:59:15;17.70;99.90
49765;DHT22;35657;51.204;-4.130;2023-07-31T10:01:42;17.80;99.90
49765;DHT22;35657;51.204;-4.130;2023-07-31T10:04:10;17.70;99.90
49765;DHT22;35657;51.204;-4.130;2023-07-31T10:06:37;17.70;99.90
49765;DHT22;35657;51.204;-4.130;2023-07-31T10:09:09;17.60;99.90
49765;DHT22;35657;51.204;-4.130;2023-07-31T10:11:56;17.50;99.90
49765;DHT22;35657;51.204;-4.130;2023-07-31T10:14:26;17.40;99.90
49765;DHT22;35657;51.204;-4.130;2023-07-31T10:16:53;17.50;99.90
49765;DHT22;35657;51.204;-4.130;2023-07-31T10:19:20;17.40;99.90
49765;DHT22;35657;51.204;-4.130;2023-07-31T10:21:48;17.40;99.90
49765;DHT22;35657;51.204;-4.130;2023-07-31T10:24:15;17.40;99.90
49765;DHT22;35657;51.204;-4.130;2023-07-31T10:26:41;17.40;99.90
49765;DHT22;35657;51.204;-4.130;2023-07-31T10:29:11;17.40;99.90
49765;DHT22;35657;51.204;-4.130;2023-07-31T10:31:38;17.40;99.90
49765;DHT22;35657;51.204;-4.130;2023-07-31T10:34:04;17.30;99.90
49765;DHT22;35657;51.204;-4.130;2023-07-31T10:36:30;17.30;99.90
49765;DHT22;35657;51.204;-4.130;2023-07-31T10:38:56;17.30;99.90
49765;DHT22;35657;51.204;-4.130;2023-07-31T10:41:29;17.40;99.90
49765;DHT22;35657;51.204;-4.130;2023-07-31T10:44:03;17.40;99.90
49765;DHT22;35657;51.204;-4.130;2023-07-31T10:46:32;17.30;99.90
49765;DHT22;35657;51.204;-4.130;2023-07-31T10:49:00;17.30;99.90
49765;DHT22;35657;51.204;-4.130;2023-07-31T10:51:33;17.20;99.90
49765;DHT22;35657;51.204;-4.130;2023-07-31T10:54:13;17.20;99.90
49765;DHT22;35657;51.204;-4.130;2023-07-31T10:56:40;17.10;99.90
49765;DHT22;35657;51.204;-4.130;2023-07-31T10:59:09;17.10;99.90
49765;DHT22;35657;51.204;-4.130;2023-07-31T11:01:55;17.10;99.90
49765;DHT22;35657;51.204;-4.130;2023-07-31T11:04:25;17.20;99.90
49765;DHT22;35657;51.204;-4.130;2023-07-31T11:07:01;17.10;99.90
49765;DHT22;35657;51.204;-4.130;2023-07-31T11:09:32;17.10;99.90
49765;DHT22;35657;51.204;-4.130;2023-07-31T11:11:59;17.20;99.90
49765;DHT22;35657;51.204;-4.130;2023-07-31T11:14:25;17.20;99.90
49765;DHT22;35657;51.204;-4.130;2023-07-31T11:16:51;17.20;99.90
49765;DHT22;35657;51.204;-4.130;2023-07-31T11:19:24;17.10;99.90
49765;DHT22;35657;51.204;-4.130;2023-07-31T11:21:50;17.20;99.90
49765;DHT22;35657;51.204;-4.130;2023-07-31T11:24:16;17.20;99.90
49765;DHT22;35657;51.204;-4.130;2023-07-31T11:26:52;17.10;99.90
49765;DHT22;35657;51.204;-4.130;2023-07-31T11:29:19;17.00;99.90
49765;DHT22;35657;51.204;-4.130;2023-07-31T11:31:45;17.00;99.90
49765;DHT22;35657;51.204;-4.130;2023-07-31T11:34:12;16.90;99.90
49765;DHT22;35657;51.204;-4.130;2023-07-31T11:36:37;16.90;99.90
49765;DHT22;35657;51.204;-4.130;2023-07-31T11:39:08;16.90;99.90
49765;DHT22;35657;51.204;-4.130;2023-07-31T11:41:34;16.80;99.90
49765;DHT22;35657;51.204;-4.130;2023-07-31T11:44:00;16.80;99.90
49765;DHT22;35657;51.204;-4.130;2023-07-31T11:46:27;16.80;99.90
49765;DHT22;35657;51.204;-4.130;2023-07-31T11:48:59;16.80;99.90
49765;DHT22;35657;51.204;-4.130;2023-07-31T11:51:25;16.80;99.90
49765;DHT22;35657;51.204;-4.130;2023-07-31T11:53:58;16.70;99.90
49765;DHT22;35657;51.204;-4.130;2023-07-31T11:56:25;16.80;99.90
49765;DHT22;35657;51.204;-4.130;2023-07-31T11:58:59;16.80;99.90
49765;DHT22;35657;51.204;-4.130;2023-07-31T12:01:26;16.80;99.90
49765;DHT22;35657;51.204;-4.130;2023-07-31T12:03:53;16.70;99.90
49765;DHT22;35657;51.204;-4.130;2023-07-31T12:06:19;16.80;99.90
49765;DHT22;35657;51.204;-4.130;2023-07-31T12:08:48;16.80;99.90
49765;DHT22;35657;51.204;-4.130;2023-07-31T12:11:14;16.80;99.90
49765;DHT22;35657;51.204;-4.130;2023-07-31T12:13:40;16.90;99.90
49765;DHT22;35657;51.204;-4.130;2023-07-31T12:16:06;17.10;99.90
49765;DHT22;35657;51.204;-4.130;2023-07-31T12:18:37;17.00;99.90
49765;DHT22;35657;51.204;-4.130;2023-07-31T12:21:05;17.20;99.90
49765;DHT22;35657;51.204;-4.130;2023-07-31T12:23:32;17.20;99.90
49765;DHT22;35657;51.204;-4.130;2023-07-31T12:31:16;17.10;99.90
49765;DHT22;35657;51.204;-4.130;2023-07-31T12:33:45;17.00;99.90
49765;DHT22;35657;51.204;-4.130;2023-07-31T12:36:17;17.10;99.90
49765;DHT22;35657;51.204;-4.130;2023-07-31T12:38:43;17.10;99.90
49765;DHT22;35657;51.204;-4.130;2023-07-31T12:41:09;17.20;99.90
49765;DHT22;35657;51.204;-4.130;2023-07-31T12:43:36;17.20;99.90
49765;DHT22;35657;51.204;-4.130;2023-07-31T12:46:03;17.30;99.90
49765;DHT22;35657;51.204;-4.130;2023-07-31T12:48:30;17.40;99.90
49765;DHT22;35657;51.204;-4.130;2023-07-31T12:50:56;17.50;99.90
49765;DHT22;35657;51.204;-4.130;2023-07-31T12:53:22;17.50;99.90
49765;DHT22;35657;51.204;-4.130;2023-07-31T12:55:48;17.50;99.90
49765;DHT22;35657;51.204;-4.130;2023-07-31T12:58:14;17.50;99.90
49765;DHT22;35657;51.204;-4.130;2023-07-31T13:00:39;17.70;99.90
49765;DHT22;35657;51.204;-4.130;2023-07-31T13:03:05;17.70;99.90
49765;DHT22;35657;51.204;-4.130;2023-07-31T13:05:31;17.70;99.90
49765;DHT22;35657;51.204;-4.130;2023-07-31T13:07:57;17.70;99.90
49765;DHT22;35657;51.204;-4.130;2023-07-31T13:10:23;17.80;99.90
49765;DHT22;35657;51.204;-4.130;2023-07-31T13:12:49;17.90;99.90
49765;DHT22;35657;51.204;-4.130;2023-07-31T13:15:15;17.90;99.90
49765;DHT22;35657;51.204;-4.130;2023-07-31T13:17:41;17.80;99.90
49765;DHT22;35657;51.204;-4.130;2023-07-31T13:20:07;17.90;99.90
49765;DHT22;35657;51.204;-4.130;2023-07-31T13:22:33;18.00;99.90
49765;DHT22;35657;51.204;-4.130;2023-07-31T13:24:59;18.00;99.90
49765;DHT22;35657;51.204;-4.130;2023-07-31T13:27:24;18.20;99.90
49765;DHT22;35657;51.204;-4.130;2023-07-31T13:29:53;18.30;99.90
49765;DHT22;35657;51.204;-4.130;2023-07-31T13:32:19;18.20;99.90
49765;DHT22;35657;51.204;-4.130;2023-07-31T13:34:46;18.30;99.90
49765;DHT22;35657;51.204;-4.130;2023-07-31T13:37:12;18.30;99.90
49765;DHT22;35657;51.204;-4.130;2023-07-31T13:39:39;18.40;99.90
49765;DHT22;35657;51.204;-4.130;2023-07-31T13:42:05;18.50;99.90
49765;DHT22;35657;51.204;-4.130;2023-07-31T13:44:39;18.60;99.90
49765;DHT22;35657;51.204;-4.130;2023-07-31T13:47:06;18.70;99.90
49765;DHT22;35657;51.204;-4.130;2023-07-31T13:49:32;18.80;99.90
49765;DHT22;35657;51.204;-4.130;2023-07-31T13:51:58;18.90;99.90
49765;DHT22;35657;51.204;-4.130;2023-07-31T13:54:24;18.90;99.90
49765;DHT22;35657;51.204;-4.130;2023-07-31T13:56:51;19.10;99.90
49765;DHT22;35657;51.204;-4.130;2023-07-31T13:59:17;18.90;99.90
49765;DHT22;35657;51.204;-4.130;2023-07-31T14:01:43;18.80;99.90
49765;DHT22;35657;51.204;-4.130;2023-07-31T14:04:09;18.70;99.90
49765;DHT22;35657;51.204;-4.130;2023-07-31T14:06:35;18.80;99.90
49765;DHT22;35657;51.204;-4.130;2023-07-31T14:09:01;18.90;99.90
49765;DHT22;35657;51.204;-4.130;2023-07-31T14:11:27;19.00;99.90
49765;DHT22;35657;51.204;-4.130;2023-07-31T14:13:53;18.90;99.90
49765;DHT22;35657;51.204;-4.130;2023-07-31T14:16:18;19.00;99.90
49765;DHT22;35657;51.204;-4.130;2023-07-31T14:18:44;18.70;99.90
49765;DHT22;35657;51.204;-4.130;2023-07-31T14:21:11;18.70;99.90
49765;DHT22;35657;51.204;-4.130;2023-07-31T14:23:37;18.90;99.90
49765;DHT22;35657;51.204;-4.130;2023-07-31T14:26:03;19.10;99.90
49765;DHT22;35657;51.204;-4.130;2023-07-31T14:28:29;19.20;99.90
49765;DHT22;35657;51.204;-4.130;2023-07-31T14:30:55;19.30;99.90
49765;DHT22;35657;51.204;-4.130;2023-07-31T14:33:21;19.40;99.90
49765;DHT22;35657;51.204;-4.130;2023-07-31T14:35:46;19.10;99.90
49765;DHT22;35657;51.204;-4.130;2023-07-31T14:38:12;19.00;99.90
49765;DHT22;35657;51.204;-4.130;2023-07-31T14:40:38;18.90;99.90
49765;DHT22;35657;51.204;-4.130;2023-07-31T14:43:04;18.90;99.90
49765;DHT22;35657;51.204;-4.130;2023-07-31T14:45:30;18.80;99.90
49765;DHT22;35657;51.204;-4.130;2023-07-31T14:47:55;18.80;99.90
49765;DHT22;35657;51.204;-4.130;2023-07-31T14:50:21;18.90;99.90
49765;DHT22;35657;51.204;-4.130;2023-07-31T14:52:48;19.00;99.90
49765;DHT22;35657;51.204;-4.130;2023-07-31T14:55:14;19.20;99.90
49765;DHT22;35657;51.204;-4.130;2023-07-31T14:57:39;19.20;99.90
49765;DHT22;35657;51.204;-4.130;2023-07-31T15:00:06;19.20;99.90
49765;DHT22;35657;51.204;-4.130;2023-07-31T15:02:38;19.30;99.90
49765;DHT22;35657;51.204;-4.130;2023-07-31T15:05:04;19.30;99.90
49765;DHT22;35657;51.204;-4.130;2023-07-31T15:07:31;19.40;99.90
49765;DHT22;35657;51.204;-4.130;2023-07-31T15:09:57;19.40;99.90
49765;DHT22;35657;51.204;-4.130;2023-07-31T15:12:23;19.40;99.90
49765;DHT22;35657;51.204;-4.130;2023-07-31T15:14:49;19.40;99.90
49765;DHT22;35657;51.204;-4.130;2023-07-31T15:17:16;19.50;99.90
49765;DHT22;35657;51.204;-4.130;2023-07-31T15:19:41;19.60;99.90
49765;DHT22;35657;51.204;-4.130;2023-07-31T15:22:07;19.70;99.90
49765;DHT22;35657;51.204;-4.130;2023-07-31T15:24:33;19.70;99.90